Hlavní strana
METAR-TAF:

METAR-TAF

Letiště :

Aktau, Kazachstán

zeměpisná šířka: 43-52-12N, zeměpisná délka: 051-06E, výška: 22 m

Aktuální stav počasí

Zpráva byla vytvořena před 44 minutami, v 00:30 UTC
Východní vítr 10 kt
Teplota 14°C
Vlhkost vzduchu 51%
Tlak 1016 hPa
Viditelnost 10 km a více
Žádná oblačnost pod 1500 m, nevyskytují se cumulonimby.

METAR: UATE 220030Z 09005MPS CAVOK 14/04 Q1016 R12/0///70 NOSIG RMK QFE760/1013

Čas: 06:14 (01:14 UTC)

Předpověď počasí

Zpráva byla vytvořena před 2 hodinami a 8 minutami, v 23:06 UTC
Předpověď platná od 22 v 00 UTC do 22 v 24 UTC
Východní vítr 10 kt
Viditelnost 10 km a více
Žádná oblačnost pod 1500 m, nevyskytují se cumulonimby.
Změna
od 22 v 04 UTC do 22 v 06 UTC
Jihojihovýchodní vítr 16 kt

TAF: UATE 212306Z 2200/2224 09005MPS CAVOK TX28/2210Z TN15/2202Z BECMG 2204/2206 15008MPS

Stav a předpovědi počasí z více než 4 000 letišť (zprávy METAR a TAF).

Červené a žluté tečky na mapě představují dostupné meteorologické stanice.

Když kurzor umístíte na tečku, zobrazí se název stanice.

Pak kliknutím zobrazíte stav a předpověď počasí.

Chcete-li změnit mapu, kliknutím na zelené tlačítko se znaménkem +mapu přiblížíte, kliknutím na zelené tlačítko se znaménkem – mapu oddálíte a kliknutím na zelené šipky přejdete na sousední mapy.


METAR-TAF: